sensor_id;sensor_type;location;lat;lon;timestamp;temperature;humidity
18868;DHT22;9563;49.240;9.088;2022-08-21T00:01:26;16.90;99.90
18868;DHT22;9563;49.240;9.088;2022-08-21T00:03:54;16.90;99.90
18868;DHT22;9563;49.240;9.088;2022-08-21T00:06:22;16.90;99.90
18868;DHT22;9563;49.240;9.088;2022-08-21T00:08:49;16.90;99.90
18868;DHT22;9563;49.240;9.088;2022-08-21T00:11:16;16.90;99.90
18868;DHT22;9563;49.240;9.088;2022-08-21T00:13:45;16.70;99.90
18868;DHT22;9563;49.240;9.088;2022-08-21T00:16:12;16.70;99.90
18868;DHT22;9563;49.240;9.088;2022-08-21T00:18:39;16.60;99.90
18868;DHT22;9563;49.240;9.088;2022-08-21T00:21:06;16.50;99.90
18868;DHT22;9563;49.240;9.088;2022-08-21T00:23:33;16.50;99.90
18868;DHT22;9563;49.240;9.088;2022-08-21T00:26:00;16.40;99.90
18868;DHT22;9563;49.240;9.088;2022-08-21T00:28:27;16.20;99.90
18868;DHT22;9563;49.240;9.088;2022-08-21T00:30:55;16.20;99.90
18868;DHT22;9563;49.240;9.088;2022-08-21T00:33:23;16.10;99.90
18868;DHT22;9563;49.240;9.088;2022-08-21T00:35:50;16.00;99.90
18868;DHT22;9563;49.240;9.088;2022-08-21T00:38:17;16.00;99.90
18868;DHT22;9563;49.240;9.088;2022-08-21T00:40:47;16.00;99.90
18868;DHT22;9563;49.240;9.088;2022-08-21T00:43:17;15.80;99.90
18868;DHT22;9563;49.240;9.088;2022-08-21T00:45:44;15.70;99.90
18868;DHT22;9563;49.240;9.088;2022-08-21T00:48:13;15.60;99.90
18868;DHT22;9563;49.240;9.088;2022-08-21T00:50:44;15.70;99.90
18868;DHT22;9563;49.240;9.088;2022-08-21T00:53:13;15.70;99.90
18868;DHT22;9563;49.240;9.088;2022-08-21T00:55:41;15.60;99.90
18868;DHT22;9563;49.240;9.088;2022-08-21T00:58:09;15.60;99.90
18868;DHT22;9563;49.240;9.088;2022-08-21T01:00:40;15.50;99.90
18868;DHT22;9563;49.240;9.088;2022-08-21T01:03:11;15.50;99.90
18868;DHT22;9563;49.240;9.088;2022-08-21T01:05:40;15.40;99.90
18868;DHT22;9563;49.240;9.088;2022-08-21T01:08:08;15.40;99.90
18868;DHT22;9563;49.240;9.088;2022-08-21T01:10:37;15.40;99.90
18868;DHT22;9563;49.240;9.088;2022-08-21T01:13:05;15.40;99.90
18868;DHT22;9563;49.240;9.088;2022-08-21T01:15:35;15.40;99.90
18868;DHT22;9563;49.240;9.088;2022-08-21T01:18:04;15.40;99.90
18868;DHT22;9563;49.240;9.088;2022-08-21T01:20:32;15.10;99.90
18868;DHT22;9563;49.240;9.088;2022-08-21T01:23:02;15.10;99.90
18868;DHT22;9563;49.240;9.088;2022-08-21T01:25:29;15.20;99.90
18868;DHT22;9563;49.240;9.088;2022-08-21T01:27:57;15.20;99.90
18868;DHT22;9563;49.240;9.088;2022-08-21T01:30:27;15.20;99.90
18868;DHT22;9563;49.240;9.088;2022-08-21T01:32:55;15.30;99.90
18868;DHT22;9563;49.240;9.088;2022-08-21T01:35:22;15.40;99.90
18868;DHT22;9563;49.240;9.088;2022-08-21T01:37:49;15.40;99.90
18868;DHT22;9563;49.240;9.088;2022-08-21T01:40:18;15.30;99.90
18868;DHT22;9563;49.240;9.088;2022-08-21T01:42:46;15.30;99.90
18868;DHT22;9563;49.240;9.088;2022-08-21T01:45:14;15.20;99.90
18868;DHT22;9563;49.240;9.088;2022-08-21T01:47:42;15.20;99.90
18868;DHT22;9563;49.240;9.088;2022-08-21T01:50:11;15.10;99.90
18868;DHT22;9563;49.240;9.088;2022-08-21T01:52:40;15.10;99.90
18868;DHT22;9563;49.240;9.088;2022-08-21T01:55:09;15.00;99.90
18868;DHT22;9563;49.240;9.088;2022-08-21T01:57:38;15.00;99.90
18868;DHT22;9563;49.240;9.088;2022-08-21T02:00:08;15.00;99.90
18868;DHT22;9563;49.240;9.088;2022-08-21T02:02:37;15.00;99.90
18868;DHT22;9563;49.240;9.088;2022-08-21T02:05:04;14.90;99.90
18868;DHT22;9563;49.240;9.088;2022-08-21T02:07:36;14.80;99.90
18868;DHT22;9563;49.240;9.088;2022-08-21T02:10:06;14.80;99.90
18868;DHT22;9563;49.240;9.088;2022-08-21T02:12:33;14.70;99.90
18868;DHT22;9563;49.240;9.088;2022-08-21T02:15:03;14.60;99.90
18868;DHT22;9563;49.240;9.088;2022-08-21T02:17:38;14.70;99.90
18868;DHT22;9563;49.240;9.088;2022-08-21T02:20:06;14.70;99.90
18868;DHT22;9563;49.240;9.088;2022-08-21T02:22:33;14.70;99.90
18868;DHT22;9563;49.240;9.088;2022-08-21T02:25:00;14.80;99.90
18868;DHT22;9563;49.240;9.088;2022-08-21T02:27:27;14.80;99.90
18868;DHT22;9563;49.240;9.088;2022-08-21T02:29:55;14.80;99.90
18868;DHT22;9563;49.240;9.088;2022-08-21T02:32:25;14.90;99.90
18868;DHT22;9563;49.240;9.088;2022-08-21T02:34:52;14.80;99.90
18868;DHT22;9563;49.240;9.088;2022-08-21T02:37:19;14.80;99.90
18868;DHT22;9563;49.240;9.088;2022-08-21T02:39:46;14.70;99.90
18868;DHT22;9563;49.240;9.088;2022-08-21T02:42:13;14.70;99.90
18868;DHT22;9563;49.240;9.088;2022-08-21T02:44:40;14.70;99.90
18868;DHT22;9563;49.240;9.088;2022-08-21T02:47:07;14.70;99.90
18868;DHT22;9563;49.240;9.088;2022-08-21T02:49:36;14.80;99.90
18868;DHT22;9563;49.240;9.088;2022-08-21T02:52:03;14.80;99.90
18868;DHT22;9563;49.240;9.088;2022-08-21T02:54:31;14.70;99.90
18868;DHT22;9563;49.240;9.088;2022-08-21T02:56:58;14.60;99.90
18868;DHT22;9563;49.240;9.088;2022-08-21T02:59:25;14.50;99.90
18868;DHT22;9563;49.240;9.088;2022-08-21T03:01:52;14.40;99.90
18868;DHT22;9563;49.240;9.088;2022-08-21T03:04:19;14.30;99.90
18868;DHT22;9563;49.240;9.088;2022-08-21T03:06:48;14.30;99.90
18868;DHT22;9563;49.240;9.088;2022-08-21T03:09:15;14.30;99.90
18868;DHT22;9563;49.240;9.088;2022-08-21T03:11:41;14.30;99.90
18868;DHT22;9563;49.240;9.088;2022-08-21T03:14:09;14.20;99.90
18868;DHT22;9563;49.240;9.088;2022-08-21T03:16:36;14.20;99.90
18868;DHT22;9563;49.240;9.088;2022-08-21T03:19:03;14.10;99.90
18868;DHT22;9563;49.240;9.088;2022-08-21T03:21:30;14.10;99.90
18868;DHT22;9563;49.240;9.088;2022-08-21T03:23:58;14.00;99.90
18868;DHT22;9563;49.240;9.088;2022-08-21T03:26:25;14.10;99.90
18868;DHT22;9563;49.240;9.088;2022-08-21T03:28:52;14.10;99.90
18868;DHT22;9563;49.240;9.088;2022-08-21T03:31:19;14.10;99.90
18868;DHT22;9563;49.240;9.088;2022-08-21T03:33:47;14.20;99.90
18868;DHT22;9563;49.240;9.088;2022-08-21T03:36:14;14.20;99.90
18868;DHT22;9563;49.240;9.088;2022-08-21T03:38:42;14.30;99.90
18868;DHT22;9563;49.240;9.088;2022-08-21T03:41:10;14.20;99.90
18868;DHT22;9563;49.240;9.088;2022-08-21T03:43:37;14.30;99.90
18868;DHT22;9563;49.240;9.088;2022-08-21T03:46:05;14.30;99.90
18868;DHT22;9563;49.240;9.088;2022-08-21T03:48:34;14.40;99.90
18868;DHT22;9563;49.240;9.088;2022-08-21T03:51:01;14.40;99.90
18868;DHT22;9563;49.240;9.088;2022-08-21T03:53:29;14.30;99.90
18868;DHT22;9563;49.240;9.088;2022-08-21T03:55:56;14.10;99.90
18868;DHT22;9563;49.240;9.088;2022-08-21T03:58:27;14.00;99.90
18868;DHT22;9563;49.240;9.088;2022-08-21T04:00:57;13.90;99.90
18868;DHT22;9563;49.240;9.088;2022-08-21T04:03:25;13.90;99.90
18868;DHT22;9563;49.240;9.088;2022-08-21T04:05:52;13.80;99.90
18868;DHT22;9563;49.240;9.088;2022-08-21T04:08:20;13.70;99.90
18868;DHT22;9563;49.240;9.088;2022-08-21T04:10:48;13.60;99.90
18868;DHT22;9563;49.240;9.088;2022-08-21T04:13:16;13.50;99.90
18868;DHT22;9563;49.240;9.088;2022-08-21T04:15:45;13.50;99.90
18868;DHT22;9563;49.240;9.088;2022-08-21T04:18:12;13.50;99.90
18868;DHT22;9563;49.240;9.088;2022-08-21T04:20:41;13.50;99.90
18868;DHT22;9563;49.240;9.088;2022-08-21T04:23:08;13.40;99.90
18868;DHT22;9563;49.240;9.088;2022-08-21T04:25:35;13.40;99.90
18868;DHT22;9563;49.240;9.088;2022-08-21T04:28:03;13.30;99.90
18868;DHT22;9563;49.240;9.088;2022-08-21T04:30:30;13.20;99.90
18868;DHT22;9563;49.240;9.088;2022-08-21T04:32:58;13.20;99.90
18868;DHT22;9563;49.240;9.088;2022-08-21T04:35:27;13.20;99.90
18868;DHT22;9563;49.240;9.088;2022-08-21T04:37:54;13.10;99.90
18868;DHT22;9563;49.240;9.088;2022-08-21T04:40:22;13.10;99.90
18868;DHT22;9563;49.240;9.088;2022-08-21T04:42:51;13.20;99.90
18868;DHT22;9563;49.240;9.088;2022-08-21T04:45:20;13.30;99.90
18868;DHT22;9563;49.240;9.088;2022-08-21T04:47:49;13.40;99.90
18868;DHT22;9563;49.240;9.088;2022-08-21T04:50:18;13.50;99.90
18868;DHT22;9563;49.240;9.088;2022-08-21T04:52:45;13.60;99.90
18868;DHT22;9563;49.240;9.088;2022-08-21T04:55:14;13.80;99.90
18868;DHT22;9563;49.240;9.088;2022-08-21T04:57:41;13.90;99.90
18868;DHT22;9563;49.240;9.088;2022-08-21T05:00:09;13.90;99.90
18868;DHT22;9563;49.240;9.088;2022-08-21T05:02:39;13.90;99.90
18868;DHT22;9563;49.240;9.088;2022-08-21T05:05:07;13.80;99.90
18868;DHT22;9563;49.240;9.088;2022-08-21T05:07:36;13.70;99.90
18868;DHT22;9563;49.240;9.088;2022-08-21T05:10:04;13.60;99.90
18868;DHT22;9563;49.240;9.088;2022-08-21T05:12:34;13.60;99.90
18868;DHT22;9563;49.240;9.088;2022-08-21T05:15:01;13.60;99.90
18868;DHT22;9563;49.240;9.088;2022-08-21T05:17:28;13.70;99.90
18868;DHT22;9563;49.240;9.088;2022-08-21T05:19:55;13.70;99.90
18868;DHT22;9563;49.240;9.088;2022-08-21T05:22:23;13.70;99.90
18868;DHT22;9563;49.240;9.088;2022-08-21T05:24:52;13.80;99.90
18868;DHT22;9563;49.240;9.088;2022-08-21T05:27:19;13.70;99.90
18868;DHT22;9563;49.240;9.088;2022-08-21T05:29:46;13.70;99.90
18868;DHT22;9563;49.240;9.088;2022-08-21T05:32:13;13.80;99.90
18868;DHT22;9563;49.240;9.088;2022-08-21T05:34:40;13.90;99.90
18868;DHT22;9563;49.240;9.088;2022-08-21T05:37:10;14.00;99.90
18868;DHT22;9563;49.240;9.088;2022-08-21T05:39:37;14.10;99.90
18868;DHT22;9563;49.240;9.088;2022-08-21T05:42:07;14.20;99.90
18868;DHT22;9563;49.240;9.088;2022-08-21T05:44:35;14.30;99.90
18868;DHT22;9563;49.240;9.088;2022-08-21T05:47:04;14.40;99.90
18868;DHT22;9563;49.240;9.088;2022-08-21T05:49:31;14.50;99.90
18868;DHT22;9563;49.240;9.088;2022-08-21T05:51:59;14.60;99.90
18868;DHT22;9563;49.240;9.088;2022-08-21T05:54:26;14.80;99.90
18868;DHT22;9563;49.240;9.088;2022-08-21T05:56:53;14.90;99.90
18868;DHT22;9563;49.240;9.088;2022-08-21T05:59:21;15.00;99.90
18868;DHT22;9563;49.240;9.088;2022-08-21T06:01:49;15.10;99.90
18868;DHT22;9563;49.240;9.088;2022-08-21T06:04:18;15.10;99.90
18868;DHT22;9563;49.240;9.088;2022-08-21T06:06:46;15.20;99.90
18868;DHT22;9563;49.240;9.088;2022-08-21T06:09:14;15.40;99.90
18868;DHT22;9563;49.240;9.088;2022-08-21T06:11:41;15.60;99.90
18868;DHT22;9563;49.240;9.088;2022-08-21T06:14:08;15.80;99.90
18868;DHT22;9563;49.240;9.088;2022-08-21T06:16:37;16.00;99.90
18868;DHT22;9563;49.240;9.088;2022-08-21T06:19:04;16.10;99.90
18868;DHT22;9563;49.240;9.088;2022-08-21T06:21:30;16.30;99.90
18868;DHT22;9563;49.240;9.088;2022-08-21T06:23:58;16.40;99.90
18868;DHT22;9563;49.240;9.088;2022-08-21T06:26:24;16.60;99.90
18868;DHT22;9563;49.240;9.088;2022-08-21T06:28:52;16.70;99.90
18868;DHT22;9563;49.240;9.088;2022-08-21T06:31:21;16.90;99.90
18868;DHT22;9563;49.240;9.088;2022-08-21T06:33:51;17.10;99.90
18868;DHT22;9563;49.240;9.088;2022-08-21T06:36:18;17.20;99.90
18868;DHT22;9563;49.240;9.088;2022-08-21T06:38:46;17.40;99.90
18868;DHT22;9563;49.240;9.088;2022-08-21T06:41:13;17.50;99.90
18868;DHT22;9563;49.240;9.088;2022-08-21T06:43:40;17.60;99.90
18868;DHT22;9563;49.240;9.088;2022-08-21T06:46:07;17.80;99.90
18868;DHT22;9563;49.240;9.088;2022-08-21T06:48:34;17.90;99.90
18868;DHT22;9563;49.240;9.088;2022-08-21T06:51:03;18.10;99.90
18868;DHT22;9563;49.240;9.088;2022-08-21T06:53:31;18.10;99.90
18868;DHT22;9563;49.240;9.088;2022-08-21T06:55:58;18.30;99.90
18868;DHT22;9563;49.240;9.088;2022-08-21T06:58:25;18.30;99.90
18868;DHT22;9563;49.240;9.088;2022-08-21T07:00:52;18.40;99.90
18868;DHT22;9563;49.240;9.088;2022-08-21T07:03:23;18.60;99.90
18868;DHT22;9563;49.240;9.088;2022-08-21T07:05:50;18.80;99.90
18868;DHT22;9563;49.240;9.088;2022-08-21T07:08:20;19.00;99.90
18868;DHT22;9563;49.240;9.088;2022-08-21T07:10:48;19.20;99.90
18868;DHT22;9563;49.240;9.088;2022-08-21T07:13:15;19.30;99.90
18868;DHT22;9563;49.240;9.088;2022-08-21T07:15:42;19.60;99.90
18868;DHT22;9563;49.240;9.088;2022-08-21T07:18:10;19.80;99.90
18868;DHT22;9563;49.240;9.088;2022-08-21T07:20:37;20.00;99.90
18868;DHT22;9563;49.240;9.088;2022-08-21T07:23:08;20.20;99.90
18868;DHT22;9563;49.240;9.088;2022-08-21T07:25:37;20.30;99.90
18868;DHT22;9563;49.240;9.088;2022-08-21T07:28:04;20.60;99.90
18868;DHT22;9563;49.240;9.088;2022-08-21T07:30:31;20.80;99.90
18868;DHT22;9563;49.240;9.088;2022-08-21T07:32:58;21.10;99.90
18868;DHT22;9563;49.240;9.088;2022-08-21T07:35:26;21.40;99.90
18868;DHT22;9563;49.240;9.088;2022-08-21T07:37:54;21.60;99.90
18868;DHT22;9563;49.240;9.088;2022-08-21T07:40:20;21.90;99.90
18868;DHT22;9563;49.240;9.088;2022-08-21T07:42:49;22.00;99.90
18868;DHT22;9563;49.240;9.088;2022-08-21T07:45:19;22.20;99.90
18868;DHT22;9563;49.240;9.088;2022-08-21T07:47:46;22.30;99.90
18868;DHT22;9563;49.240;9.088;2022-08-21T07:50:14;22.50;99.90
18868;DHT22;9563;49.240;9.088;2022-08-21T07:52:42;22.70;99.90
18868;DHT22;9563;49.240;9.088;2022-08-21T07:55:12;23.00;99.90
18868;DHT22;9563;49.240;9.088;2022-08-21T07:57:40;23.30;99.90
18868;DHT22;9563;49.240;9.088;2022-08-21T08:00:13;23.50;99.90
18868;DHT22;9563;49.240;9.088;2022-08-21T08:02:43;23.70;99.90
18868;DHT22;9563;49.240;9.088;2022-08-21T08:05:11;23.80;99.90
18868;DHT22;9563;49.240;9.088;2022-08-21T08:07:39;24.10;99.90
18868;DHT22;9563;49.240;9.088;2022-08-21T08:10:07;24.30;99.90
18868;DHT22;9563;49.240;9.088;2022-08-21T08:12:34;24.40;99.90
18868;DHT22;9563;49.240;9.088;2022-08-21T08:15:01;24.30;99.90
18868;DHT22;9563;49.240;9.088;2022-08-21T08:17:30;24.50;99.90
18868;DHT22;9563;49.240;9.088;2022-08-21T08:19:58;24.70;99.90
18868;DHT22;9563;49.240;9.088;2022-08-21T08:22:26;25.00;99.90
18868;DHT22;9563;49.240;9.088;2022-08-21T08:24:54;25.20;99.90
18868;DHT22;9563;49.240;9.088;2022-08-21T08:27:21;25.50;99.90
18868;DHT22;9563;49.240;9.088;2022-08-21T08:29:49;25.50;99.90
18868;DHT22;9563;49.240;9.088;2022-08-21T08:32:17;25.30;99.90
18868;DHT22;9563;49.240;9.088;2022-08-21T08:34:46;24.90;99.90
18868;DHT22;9563;49.240;9.088;2022-08-21T08:37:14;24.80;99.90
18868;DHT22;9563;49.240;9.088;2022-08-21T08:39:41;24.80;99.90
18868;DHT22;9563;49.240;9.088;2022-08-21T08:42:12;25.00;99.90
18868;DHT22;9563;49.240;9.088;2022-08-21T08:44:40;25.10;99.90
18868;DHT22;9563;49.240;9.088;2022-08-21T08:47:09;25.30;99.90
18868;DHT22;9563;49.240;9.088;2022-08-21T08:49:40;25.50;99.90
18868;DHT22;9563;49.240;9.088;2022-08-21T08:52:20;25.80;99.90
18868;DHT22;9563;49.240;9.088;2022-08-21T08:54:53;26.00;99.90
18868;DHT22;9563;49.240;9.088;2022-08-21T08:57:23;26.10;99.90
18868;DHT22;9563;49.240;9.088;2022-08-21T08:59:55;26.00;99.90
18868;DHT22;9563;49.240;9.088;2022-08-21T09:02:23;25.90;99.90
18868;DHT22;9563;49.240;9.088;2022-08-21T09:04:53;25.90;99.90
18868;DHT22;9563;49.240;9.088;2022-08-21T09:07:34;26.20;99.90
18868;DHT22;9563;49.240;9.088;2022-08-21T09:10:11;26.40;99.90
18868;DHT22;9563;49.240;9.088;2022-08-21T09:12:45;26.40;99.80
18868;DHT22;9563;49.240;9.088;2022-08-21T09:15:21;26.50;99.50
18868;DHT22;9563;49.240;9.088;2022-08-21T09:18:04;26.50;99.50
18868;DHT22;9563;49.240;9.088;2022-08-21T09:20:40;26.70;98.20
18868;DHT22;9563;49.240;9.088;2022-08-21T09:23:18;26.90;97.40
18868;DHT22;9563;49.240;9.088;2022-08-21T09:25:56;27.20;97.00
18868;DHT22;9563;49.240;9.088;2022-08-21T09:28:25;27.30;96.50
18868;DHT22;9563;49.240;9.088;2022-08-21T09:30:54;26.90;95.90
18868;DHT22;9563;49.240;9.088;2022-08-21T09:33:28;27.00;95.70
18868;DHT22;9563;49.240;9.088;2022-08-21T09:35:56;26.80;95.30
18868;DHT22;9563;49.240;9.088;2022-08-21T09:38:30;27.00;96.40
18868;DHT22;9563;49.240;9.088;2022-08-21T09:41:01;26.80;95.00
18868;DHT22;9563;49.240;9.088;2022-08-21T09:43:29;26.80;94.40
18868;DHT22;9563;49.240;9.088;2022-08-21T09:46:06;26.90;95.10
18868;DHT22;9563;49.240;9.088;2022-08-21T09:48:46;27.20;94.90
18868;DHT22;9563;49.240;9.088;2022-08-21T09:51:16;27.60;94.80
18868;DHT22;9563;49.240;9.088;2022-08-21T09:53:47;27.80;93.30
18868;DHT22;9563;49.240;9.088;2022-08-21T09:56:19;28.10;92.80
18868;DHT22;9563;49.240;9.088;2022-08-21T09:59:18;28.50;92.70
18868;DHT22;9563;49.240;9.088;2022-08-21T10:01:47;28.40;90.30
18868;DHT22;9563;49.240;9.088;2022-08-21T10:04:15;28.40;91.10
18868;DHT22;9563;49.240;9.088;2022-08-21T10:06:45;28.30;89.40
18868;DHT22;9563;49.240;9.088;2022-08-21T10:09:16;28.00;87.60
18868;DHT22;9563;49.240;9.088;2022-08-21T10:11:50;27.30;90.00
18868;DHT22;9563;49.240;9.088;2022-08-21T10:14:25;26.70;90.80
18868;DHT22;9563;49.240;9.088;2022-08-21T10:17:00;26.50;92.80
18868;DHT22;9563;49.240;9.088;2022-08-21T10:19:35;26.80;93.40
18868;DHT22;9563;49.240;9.088;2022-08-21T10:22:14;27.10;93.60
18868;DHT22;9563;49.240;9.088;2022-08-21T10:24:52;26.80;92.20
18868;DHT22;9563;49.240;9.088;2022-08-21T10:27:27;26.60;93.80
18868;DHT22;9563;49.240;9.088;2022-08-21T10:29:59;26.30;93.80
18868;DHT22;9563;49.240;9.088;2022-08-21T10:35:39;27.00;93.20
18868;DHT22;9563;49.240;9.088;2022-08-21T10:38:46;27.60;91.70
18868;DHT22;9563;49.240;9.088;2022-08-21T10:41:24;28.10;90.50
18868;DHT22;9563;49.240;9.088;2022-08-21T10:43:59;28.00;88.40
18868;DHT22;9563;49.240;9.088;2022-08-21T10:46:42;27.40;90.70
18868;DHT22;9563;49.240;9.088;2022-08-21T10:49:20;27.80;91.50
18868;DHT22;9563;49.240;9.088;2022-08-21T10:51:56;28.40;91.20
18868;DHT22;9563;49.240;9.088;2022-08-21T10:54:32;28.90;90.00
18868;DHT22;9563;49.240;9.088;2022-08-21T10:57:09;29.40;87.40
18868;DHT22;9563;49.240;9.088;2022-08-21T10:59:42;29.90;85.00
18868;DHT22;9563;49.240;9.088;2022-08-21T11:02:15;30.20;81.70
18868;DHT22;9563;49.240;9.088;2022-08-21T11:04:50;30.50;79.90
18868;DHT22;9563;49.240;9.088;2022-08-21T11:07:22;30.70;78.50
18868;DHT22;9563;49.240;9.088;2022-08-21T11:09:55;30.40;73.10
18868;DHT22;9563;49.240;9.088;2022-08-21T11:12:30;30.70;75.30
18868;DHT22;9563;49.240;9.088;2022-08-21T11:15:04;30.50;69.70
18868;DHT22;9563;49.240;9.088;2022-08-21T11:17:38;30.50;70.00
18868;DHT22;9563;49.240;9.088;2022-08-21T11:20:12;30.30;68.90
18868;DHT22;9563;49.240;9.088;2022-08-21T11:22:44;30.30;71.20
18868;DHT22;9563;49.240;9.088;2022-08-21T11:25:19;30.70;74.00
18868;DHT22;9563;49.240;9.088;2022-08-21T11:27:52;31.10;71.20
18868;DHT22;9563;49.240;9.088;2022-08-21T11:30:20;31.40;69.50
18868;DHT22;9563;49.240;9.088;2022-08-21T11:33:01;31.70;71.60
18868;DHT22;9563;49.240;9.088;2022-08-21T11:35:35;31.60;66.40
18868;DHT22;9563;49.240;9.088;2022-08-21T11:38:19;31.30;68.50
18868;DHT22;9563;49.240;9.088;2022-08-21T11:41:02;31.00;69.20
18868;DHT22;9563;49.240;9.088;2022-08-21T11:43:37;30.70;71.00
18868;DHT22;9563;49.240;9.088;2022-08-21T11:46:15;30.80;70.40
18868;DHT22;9563;49.240;9.088;2022-08-21T11:48:51;31.10;71.20
18868;DHT22;9563;49.240;9.088;2022-08-21T11:51:25;30.70;70.20
18868;DHT22;9563;49.240;9.088;2022-08-21T11:54:01;30.60;71.70
18868;DHT22;9563;49.240;9.088;2022-08-21T11:56:34;30.90;71.80
18868;DHT22;9563;49.240;9.088;2022-08-21T11:59:09;31.10;70.90
18868;DHT22;9563;49.240;9.088;2022-08-21T12:01:41;31.20;64.90
18868;DHT22;9563;49.240;9.088;2022-08-21T12:04:17;31.70;68.20
18868;DHT22;9563;49.240;9.088;2022-08-21T12:06:45;31.90;68.00
18868;DHT22;9563;49.240;9.088;2022-08-21T12:09:30;32.30;67.10
18868;DHT22;9563;49.240;9.088;2022-08-21T12:12:02;32.40;64.70
18868;DHT22;9563;49.240;9.088;2022-08-21T12:14:39;32.40;65.90
18868;DHT22;9563;49.240;9.088;2022-08-21T12:17:15;32.20;63.10
18868;DHT22;9563;49.240;9.088;2022-08-21T12:19:43;32.30;64.70
18868;DHT22;9563;49.240;9.088;2022-08-21T12:22:13;32.40;63.60
18868;DHT22;9563;49.240;9.088;2022-08-21T12:24:43;32.50;63.30
18868;DHT22;9563;49.240;9.088;2022-08-21T12:27:22;32.30;60.00
18868;DHT22;9563;49.240;9.088;2022-08-21T12:29:56;32.30;61.30
18868;DHT22;9563;49.240;9.088;2022-08-21T12:32:27;32.30;59.60
18868;DHT22;9563;49.240;9.088;2022-08-21T12:35:01;32.30;59.20
18868;DHT22;9563;49.240;9.088;2022-08-21T12:37:38;32.20;58.10
18868;DHT22;9563;49.240;9.088;2022-08-21T12:40:13;32.10;56.50
18868;DHT22;9563;49.240;9.088;2022-08-21T12:42:47;31.70;56.90
18868;DHT22;9563;49.240;9.088;2022-08-21T12:45:20;31.00;57.20
18868;DHT22;9563;49.240;9.088;2022-08-21T12:47:56;30.50;57.10
18868;DHT22;9563;49.240;9.088;2022-08-21T12:50:29;30.50;59.70
18868;DHT22;9563;49.240;9.088;2022-08-21T12:53:02;30.50;59.40
18868;DHT22;9563;49.240;9.088;2022-08-21T12:55:33;30.60;57.90
18868;DHT22;9563;49.240;9.088;2022-08-21T12:58:00;30.50;57.50
18868;DHT22;9563;49.240;9.088;2022-08-21T13:00:29;30.40;57.40
18868;DHT22;9563;49.240;9.088;2022-08-21T13:02:56;30.40;59.30
18868;DHT22;9563;49.240;9.088;2022-08-21T13:05:29;30.70;60.30
18868;DHT22;9563;49.240;9.088;2022-08-21T13:07:58;30.80;60.50
18868;DHT22;9563;49.240;9.088;2022-08-21T13:10:29;30.90;59.30
18868;DHT22;9563;49.240;9.088;2022-08-21T13:12:58;31.00;57.50
18868;DHT22;9563;49.240;9.088;2022-08-21T13:15:31;30.90;53.80
18868;DHT22;9563;49.240;9.088;2022-08-21T13:17:59;30.70;55.70
18868;DHT22;9563;49.240;9.088;2022-08-21T13:20:30;30.50;54.50
18868;DHT22;9563;49.240;9.088;2022-08-21T13:23:00;30.60;56.40
18868;DHT22;9563;49.240;9.088;2022-08-21T13:25:33;30.50;56.10
18868;DHT22;9563;49.240;9.088;2022-08-21T13:28:05;30.60;57.30
18868;DHT22;9563;49.240;9.088;2022-08-21T13:30:37;30.70;57.40
18868;DHT22;9563;49.240;9.088;2022-08-21T13:33:06;30.70;56.80
18868;DHT22;9563;49.240;9.088;2022-08-21T13:35:46;30.40;55.70
18868;DHT22;9563;49.240;9.088;2022-08-21T13:38:14;30.00;56.10
18868;DHT22;9563;49.240;9.088;2022-08-21T13:40:45;30.00;58.80
18868;DHT22;9563;49.240;9.088;2022-08-21T13:43:14;30.10;57.20
18868;DHT22;9563;49.240;9.088;2022-08-21T13:45:49;30.20;57.90
18868;DHT22;9563;49.240;9.088;2022-08-21T13:48:17;30.20;57.00
18868;DHT22;9563;49.240;9.088;2022-08-21T13:50:45;29.90;55.10
18868;DHT22;9563;49.240;9.088;2022-08-21T13:53:22;30.00;56.80
18868;DHT22;9563;49.240;9.088;2022-08-21T13:55:49;30.10;61.90
18868;DHT22;9563;49.240;9.088;2022-08-21T13:58:25;30.10;61.30
18868;DHT22;9563;49.240;9.088;2022-08-21T14:00:54;30.20;60.90
18868;DHT22;9563;49.240;9.088;2022-08-21T14:03:33;30.10;60.50
18868;DHT22;9563;49.240;9.088;2022-08-21T14:06:01;29.90;60.10
18868;DHT22;9563;49.240;9.088;2022-08-21T14:08:33;30.00;61.70
18868;DHT22;9563;49.240;9.088;2022-08-21T14:11:02;30.00;59.70
18868;DHT22;9563;49.240;9.088;2022-08-21T14:13:35;30.00;60.00
18868;DHT22;9563;49.240;9.088;2022-08-21T14:16:22;30.20;60.90
18868;DHT22;9563;49.240;9.088;2022-08-21T14:18:55;30.30;61.60
18868;DHT22;9563;49.240;9.088;2022-08-21T14:21:36;30.40;61.40
18868;DHT22;9563;49.240;9.088;2022-08-21T14:24:08;30.50;61.30
18868;DHT22;9563;49.240;9.088;2022-08-21T14:26:37;30.60;61.50
18868;DHT22;9563;49.240;9.088;2022-08-21T14:29:11;30.60;58.70
18868;DHT22;9563;49.240;9.088;2022-08-21T14:31:40;30.70;57.80
18868;DHT22;9563;49.240;9.088;2022-08-21T14:34:10;30.60;57.20
18868;DHT22;9563;49.240;9.088;2022-08-21T14:36:39;30.70;58.90
18868;DHT22;9563;49.240;9.088;2022-08-21T14:39:06;30.70;58.90
18868;DHT22;9563;49.240;9.088;2022-08-21T14:41:33;30.70;60.40
18868;DHT22;9563;49.240;9.088;2022-08-21T14:44:00;30.80;60.00
18868;DHT22;9563;49.240;9.088;2022-08-21T14:46:29;30.60;57.30
18868;DHT22;9563;49.240;9.088;2022-08-21T14:48:59;30.60;57.70
18868;DHT22;9563;49.240;9.088;2022-08-21T14:51:26;30.40;55.90
18868;DHT22;9563;49.240;9.088;2022-08-21T14:53:52;30.40;58.40
18868;DHT22;9563;49.240;9.088;2022-08-21T14:56:20;30.50;59.60
18868;DHT22;9563;49.240;9.088;2022-08-21T14:58:49;30.60;60.70
18868;DHT22;9563;49.240;9.088;2022-08-21T15:01:18;30.60;60.10
18868;DHT22;9563;49.240;9.088;2022-08-21T15:03:46;30.60;58.90
18868;DHT22;9563;49.240;9.088;2022-08-21T15:06:16;30.60;58.60
18868;DHT22;9563;49.240;9.088;2022-08-21T15:08:43;30.60;58.90
18868;DHT22;9563;49.240;9.088;2022-08-21T15:11:14;30.40;56.10
18868;DHT22;9563;49.240;9.088;2022-08-21T15:13:42;30.30;54.60
18868;DHT22;9563;49.240;9.088;2022-08-21T15:16:10;30.20;55.10
18868;DHT22;9563;49.240;9.088;2022-08-21T15:18:38;30.10;56.00
18868;DHT22;9563;49.240;9.088;2022-08-21T15:21:05;30.10;56.80
18868;DHT22;9563;49.240;9.088;2022-08-21T15:23:34;30.20;57.40
18868;DHT22;9563;49.240;9.088;2022-08-21T15:26:01;30.00;55.20
18868;DHT22;9563;49.240;9.088;2022-08-21T15:28:28;30.00;56.30
18868;DHT22;9563;49.240;9.088;2022-08-21T15:30:55;30.10;58.30
18868;DHT22;9563;49.240;9.088;2022-08-21T15:33:23;30.00;58.10
18868;DHT22;9563;49.240;9.088;2022-08-21T15:35:50;29.90;58.30
18868;DHT22;9563;49.240;9.088;2022-08-21T15:38:17;29.70;56.90
18868;DHT22;9563;49.240;9.088;2022-08-21T15:40:46;29.60;57.50
18868;DHT22;9563;49.240;9.088;2022-08-21T15:43:21;29.50;58.40
18868;DHT22;9563;49.240;9.088;2022-08-21T15:45:49;29.30;59.20
18868;DHT22;9563;49.240;9.088;2022-08-21T15:48:17;29.20;58.60
18868;DHT22;9563;49.240;9.088;2022-08-21T15:50:44;29.10;58.30
18868;DHT22;9563;49.240;9.088;2022-08-21T15:53:11;29.00;58.60
18868;DHT22;9563;49.240;9.088;2022-08-21T15:55:38;28.90;58.30
18868;DHT22;9563;49.240;9.088;2022-08-21T15:58:12;28.80;58.00
18868;DHT22;9563;49.240;9.088;2022-08-21T16:00:39;28.70;56.30
18868;DHT22;9563;49.240;9.088;2022-08-21T16:03:10;28.60;58.00
18868;DHT22;9563;49.240;9.088;2022-08-21T16:05:39;28.50;58.40